createdAt,value
2023-01-09T00:01:28.644Z,10.20
2023-01-09T00:03:56.807Z,10.20
2023-01-09T00:06:24.956Z,10.20
2023-01-09T00:08:52.963Z,10.20
2023-01-09T00:11:21.312Z,10.20
2023-01-09T00:13:50.933Z,10.20
2023-01-09T00:16:19.021Z,10.20
2023-01-09T00:18:47.290Z,10.20
2023-01-09T00:21:15.446Z,10.20
2023-01-09T00:23:43.452Z,10.20
2023-01-09T00:26:13.562Z,10.20
2023-01-09T00:28:41.918Z,10.20
2023-01-09T00:31:12.118Z,10.20
2023-01-09T00:33:42.864Z,10.20
2023-01-09T00:36:11.605Z,10.20
2023-01-09T00:38:40.963Z,10.20
2023-01-09T00:41:12.795Z,10.30
2023-01-09T00:43:45.083Z,10.20
2023-01-09T00:46:15.842Z,10.20
2023-01-09T00:48:47.183Z,10.20
2023-01-09T00:51:15.708Z,10.30
2023-01-09T00:53:44.311Z,10.30
2023-01-09T00:56:16.376Z,10.30
2023-01-09T00:58:44.893Z,10.30
2023-01-09T01:01:14.500Z,10.20
2023-01-09T01:03:42.612Z,10.30
2023-01-09T01:06:28.396Z,10.30
2023-01-09T01:08:56.782Z,10.30
2023-01-09T01:11:25.358Z,10.30
2023-01-09T01:13:53.771Z,10.30
2023-01-09T01:16:23.160Z,10.30
2023-01-09T01:18:51.494Z,10.20
2023-01-09T01:21:19.711Z,10.20
2023-01-09T01:23:47.787Z,10.30
2023-01-09T01:26:17.519Z,10.30
2023-01-09T01:28:45.742Z,10.30
2023-01-09T01:31:18.255Z,10.30
2023-01-09T01:33:47.745Z,10.30
2023-01-09T01:36:17.501Z,10.40
2023-01-09T01:38:46.793Z,10.30
2023-01-09T01:41:29.161Z,10.30
2023-01-09T01:43:59.770Z,10.30
2023-01-09T01:46:28.176Z,10.30
2023-01-09T01:49:03.967Z,10.30
2023-01-09T01:51:35.327Z,10.20
2023-01-09T01:54:07.852Z,10.20
2023-01-09T01:56:40.909Z,10.30
2023-01-09T01:59:14.004Z,10.30
2023-01-09T02:01:45.236Z,10.30
2023-01-09T02:04:14.995Z,10.30
2023-01-09T02:06:44.725Z,10.30
2023-01-09T02:09:15.078Z,10.30
2023-01-09T02:11:45.915Z,10.20
2023-01-09T02:14:14.546Z,10.20
2023-01-09T02:16:54.895Z,10.20
2023-01-09T02:20:13.773Z,10.20
2023-01-09T02:22:53.293Z,10.20
2023-01-09T02:25:48.309Z,10.20
2023-01-09T02:28:45.761Z,10.20
2023-01-09T02:31:20.553Z,10.10
2023-01-09T02:33:55.913Z,10.10
2023-01-09T02:36:31.249Z,10.10
2023-01-09T02:39:16.466Z,10.10
2023-01-09T02:41:49.689Z,10.10
2023-01-09T02:44:23.777Z,10.10
2023-01-09T02:47:05.046Z,10.10
2023-01-09T02:49:34.451Z,10.00
2023-01-09T02:52:14.759Z,10.00
2023-01-09T02:54:55.171Z,10.00
2023-01-09T02:57:47.875Z,9.90
2023-01-09T03:00:34.895Z,10.00
2023-01-09T03:03:10.342Z,10.00
2023-01-09T03:05:43.212Z,9.90
2023-01-09T03:08:16.743Z,9.90
2023-01-09T03:10:50.900Z,10.00
2023-01-09T03:13:22.005Z,10.00
2023-01-09T03:15:53.294Z,10.00
2023-01-09T03:18:25.774Z,9.90
2023-01-09T03:20:55.121Z,10.00
2023-01-09T03:23:23.371Z,10.00
2023-01-09T03:25:51.386Z,10.00
2023-01-09T03:28:29.558Z,10.10
2023-01-09T03:30:57.538Z,10.10
2023-01-09T03:33:26.952Z,10.20
2023-01-09T03:35:54.943Z,10.00
2023-01-09T03:38:22.963Z,10.00
2023-01-09T03:40:51.311Z,10.00
2023-01-09T03:43:19.337Z,10.00
2023-01-09T03:45:47.437Z,10.00
2023-01-09T03:48:15.551Z,10.00
2023-01-09T03:50:47.227Z,10.00
2023-01-09T03:53:15.381Z,9.90
2023-01-09T03:55:46.295Z,9.90
2023-01-09T03:58:14.887Z,10.00
2023-01-09T04:00:45.629Z,9.90
2023-01-09T04:03:14.286Z,9.90
2023-01-09T04:05:44.201Z,10.00
2023-01-09T04:08:12.255Z,10.00
2023-01-09T04:10:40.717Z,9.90
2023-01-09T04:13:08.744Z,10.00
2023-01-09T04:15:36.772Z,10.00
2023-01-09T04:18:05.240Z,10.00
2023-01-09T04:20:33.399Z,10.00
2023-01-09T04:23:03.670Z,10.00
2023-01-09T04:25:31.736Z,10.00
2023-01-09T04:27:59.878Z,9.90
2023-01-09T04:30:27.928Z,10.00
2023-01-09T04:32:55.925Z,9.90
2023-01-09T04:35:24.115Z,9.90
2023-01-09T04:37:52.128Z,10.00
2023-01-09T04:40:21.619Z,9.90
2023-01-09T04:42:49.634Z,10.00
2023-01-09T04:45:17.654Z,9.90
2023-01-09T04:47:45.759Z,9.90
2023-01-09T04:50:13.905Z,9.90
2023-01-09T04:52:41.968Z,9.90
2023-01-09T04:55:10.618Z,9.80
2023-01-09T04:57:39.951Z,9.90
2023-01-09T05:00:12.099Z,9.90
2023-01-09T05:02:40.830Z,9.80
2023-01-09T05:05:11.547Z,9.80
2023-01-09T05:07:40.035Z,9.80
2023-01-09T05:10:09.563Z,9.80
2023-01-09T05:12:39.781Z,9.70
2023-01-09T05:15:09.115Z,9.80
2023-01-09T05:17:37.124Z,9.80
2023-01-09T05:20:05.930Z,9.80
2023-01-09T05:22:33.968Z,9.70
2023-01-09T05:25:02.049Z,9.70
2023-01-09T05:27:30.421Z,9.70
2023-01-09T05:29:59.792Z,9.70
2023-01-09T05:32:27.842Z,9.60
2023-01-09T05:34:55.897Z,9.60
2023-01-09T05:37:23.918Z,9.60
2023-01-09T05:39:51.967Z,9.50
2023-01-09T05:42:20.025Z,9.60
2023-01-09T05:44:48.098Z,9.60
2023-01-09T05:47:17.460Z,9.50
2023-01-09T05:49:45.574Z,9.50
2023-01-09T05:52:13.601Z,9.50
2023-01-09T05:54:41.590Z,9.50
2023-01-09T05:57:09.682Z,9.50
2023-01-09T05:59:37.733Z,9.50
2023-01-09T06:02:05.829Z,9.50
2023-01-09T06:04:35.334Z,9.50
2023-01-09T06:07:03.375Z,9.50
2023-01-09T06:09:31.736Z,9.50
2023-01-09T06:11:59.763Z,9.50
2023-01-09T06:14:27.810Z,9.50
2023-01-09T06:16:55.799Z,9.50
2023-01-09T06:19:23.848Z,9.50
2023-01-09T06:21:53.708Z,9.40
2023-01-09T06:24:21.772Z,9.50
2023-01-09T06:26:49.763Z,9.40
2023-01-09T06:29:17.819Z,9.40
2023-01-09T06:31:45.855Z,9.40
2023-01-09T06:34:13.917Z,9.50
2023-01-09T06:36:41.951Z,9.50
2023-01-09T06:39:11.302Z,9.50
2023-01-09T06:41:39.309Z,9.50
2023-01-09T06:44:07.326Z,9.50
2023-01-09T06:46:35.554Z,9.60
2023-01-09T06:49:03.580Z,9.50
2023-01-09T06:51:31.817Z,9.50
2023-01-09T06:54:00.025Z,9.40
2023-01-09T06:56:29.364Z,9.50
2023-01-09T06:58:57.382Z,9.50
2023-01-09T07:01:25.548Z,9.50
2023-01-09T07:03:53.664Z,9.50
2023-01-09T07:06:21.767Z,9.50
2023-01-09T07:08:49.825Z,9.50
2023-01-09T07:11:17.835Z,9.50
2023-01-09T07:13:47.193Z,9.50
2023-01-09T07:16:15.276Z,9.60
2023-01-09T07:18:43.304Z,9.60
2023-01-09T07:21:11.321Z,9.50
2023-01-09T07:23:39.315Z,9.60
2023-01-09T07:26:07.327Z,9.50
2023-01-09T07:28:35.356Z,9.50
2023-01-09T07:31:07.556Z,9.50
2023-01-09T07:33:36.366Z,9.50
2023-01-09T07:36:04.553Z,9.50
2023-01-09T07:38:33.065Z,9.50
2023-01-09T07:41:01.118Z,9.40
2023-01-09T07:43:29.120Z,9.50
2023-01-09T07:45:57.180Z,9.50
2023-01-09T07:48:26.611Z,9.50
2023-01-09T07:50:54.655Z,9.60
2023-01-09T07:53:22.738Z,9.60
2023-01-09T07:55:50.890Z,9.50
2023-01-09T07:58:18.944Z,9.50
2023-01-09T08:00:46.966Z,9.50
2023-01-09T08:03:14.955Z,9.50
2023-01-09T08:05:44.606Z,9.60
2023-01-09T08:08:14.308Z,9.60
2023-01-09T08:10:42.334Z,9.60
2023-01-09T08:13:10.348Z,9.60
2023-01-09T08:15:38.516Z,9.60
2023-01-09T08:18:06.658Z,9.50
2023-01-09T08:20:34.663Z,9.60
2023-01-09T08:23:04.063Z,9.50
2023-01-09T08:25:32.189Z,9.60
2023-01-09T08:28:00.243Z,9.60
2023-01-09T08:30:28.280Z,9.60
2023-01-09T08:32:56.298Z,9.60
2023-01-09T08:35:24.418Z,9.60
2023-01-09T08:37:52.479Z,9.60
2023-01-09T08:40:22.056Z,9.60
2023-01-09T08:43:07.504Z,9.60
2023-01-09T08:45:53.224Z,9.60
2023-01-09T08:48:21.289Z,9.60
2023-01-09T08:50:49.393Z,9.60
2023-01-09T08:53:17.764Z,9.70
2023-01-09T08:55:47.579Z,9.60
2023-01-09T08:58:15.652Z,9.60
2023-01-09T09:00:43.813Z,9.50
2023-01-09T09:03:12.608Z,9.60
2023-01-09T09:05:40.691Z,9.70
2023-01-09T09:08:08.686Z,9.70
2023-01-09T09:10:36.719Z,9.60
2023-01-09T09:13:06.999Z,9.60
2023-01-09T09:15:35.119Z,9.70
2023-01-09T09:18:05.383Z,9.60
2023-01-09T09:20:35.073Z,9.60
2023-01-09T09:23:03.140Z,9.70
2023-01-09T09:25:31.354Z,9.70
2023-01-09T09:28:01.130Z,9.70
2023-01-09T09:30:30.676Z,9.70
2023-01-09T09:32:58.743Z,9.60
2023-01-09T09:35:28.433Z,9.70
2023-01-09T09:37:58.315Z,9.80
2023-01-09T09:40:41.192Z,9.80
2023-01-09T09:43:41.615Z,9.70
2023-01-09T09:46:22.395Z,9.80
2023-01-09T09:48:55.988Z,9.70
2023-01-09T09:51:43.667Z,9.70
2023-01-09T09:54:15.744Z,9.80
2023-01-09T09:56:50.564Z,9.90
2023-01-09T09:59:21.839Z,10.10
2023-01-09T10:01:56.272Z,10.10
2023-01-09T10:04:27.776Z,10.10
2023-01-09T10:07:00.408Z,10.20
2023-01-09T10:09:39.444Z,10.20
2023-01-09T10:12:19.184Z,10.20
2023-01-09T10:14:47.230Z,10.10
2023-01-09T10:17:31.228Z,10.10
2023-01-09T10:20:37.044Z,10.20
2023-01-09T10:23:20.376Z,10.20
2023-01-09T10:25:53.767Z,10.30
2023-01-09T10:28:37.754Z,10.20
2023-01-09T10:31:13.478Z,10.20
2023-01-09T10:33:54.818Z,10.20
2023-01-09T10:36:45.962Z,10.40
2023-01-09T10:39:19.409Z,10.30
2023-01-09T10:41:55.053Z,10.30
2023-01-09T10:44:29.249Z,10.20
2023-01-09T10:46:58.690Z,10.10
2023-01-09T10:49:28.299Z,10.10
2023-01-09T10:52:06.637Z,10.10
2023-01-09T10:54:34.864Z,10.10
2023-01-09T10:57:11.595Z,10.00
2023-01-09T10:59:40.394Z,10.00
2023-01-09T11:02:30.784Z,10.00
2023-01-09T11:05:00.193Z,10.10
2023-01-09T11:07:30.660Z,10.10
2023-01-09T11:10:01.181Z,10.10
2023-01-09T11:12:31.092Z,10.20
2023-01-09T11:15:28.853Z,10.20
2023-01-09T11:18:19.744Z,10.00
2023-01-09T11:20:49.395Z,9.90
2023-01-09T11:23:32.328Z,10.00
2023-01-09T11:26:02.356Z,10.00
2023-01-09T11:28:30.583Z,10.00
2023-01-09T11:31:00.957Z,10.10
2023-01-09T11:33:31.210Z,10.00
2023-01-09T11:36:05.026Z,10.00
2023-01-09T11:38:45.760Z,10.00
2023-01-09T11:41:19.502Z,10.10
2023-01-09T11:43:50.100Z,10.20
2023-01-09T11:46:40.982Z,10.20
2023-01-09T11:49:22.833Z,10.20
2023-01-09T11:54:49.512Z,10.20
2023-01-09T11:57:17.948Z,10.00
2023-01-09T11:59:45.965Z,10.10
2023-01-09T12:02:53.634Z,10.10
2023-01-09T12:05:32.799Z,10.10
2023-01-09T12:08:26.955Z,10.10
2023-01-09T12:11:23.985Z,10.10
2023-01-09T12:14:07.751Z,10.10
2023-01-09T12:16:39.673Z,10.10
2023-01-09T12:19:27.494Z,10.20
2023-01-09T12:22:03.682Z,10.10
2023-01-09T12:24:48.024Z,10.10
2023-01-09T12:27:29.359Z,10.20
2023-01-09T12:30:23.930Z,10.20
2023-01-09T12:33:08.288Z,10.20
2023-01-09T12:35:42.037Z,10.30
2023-01-09T12:38:21.822Z,10.20
2023-01-09T12:41:21.775Z,10.20
2023-01-09T12:44:07.057Z,10.20
2023-01-09T12:46:43.043Z,10.10
2023-01-09T12:49:27.434Z,10.20
2023-01-09T12:52:01.923Z,10.20
2023-01-09T12:54:35.820Z,10.20
2023-01-09T12:57:07.528Z,10.20
2023-01-09T12:59:41.596Z,10.20
2023-01-09T13:02:20.859Z,10.20
2023-01-09T13:04:54.359Z,10.20
2023-01-09T13:07:25.251Z,10.30
2023-01-09T13:09:58.708Z,10.30
2023-01-09T13:12:28.416Z,10.30
2023-01-09T13:15:02.638Z,10.30
2023-01-09T13:17:37.297Z,10.30
2023-01-09T13:20:18.470Z,10.20
2023-01-09T13:22:50.208Z,10.10
2023-01-09T13:25:34.966Z,10.20
2023-01-09T13:28:08.706Z,10.30
2023-01-09T13:31:03.205Z,10.20
2023-01-09T13:33:34.311Z,10.10
2023-01-09T13:36:03.677Z,10.20
2023-01-09T13:38:33.893Z,10.20
2023-01-09T13:41:30.365Z,10.20
2023-01-09T13:44:01.380Z,10.20
2023-01-09T13:46:43.259Z,10.10
2023-01-09T13:49:32.976Z,10.10
2023-01-09T13:52:03.823Z,10.10
2023-01-09T13:55:23.649Z,10.20
2023-01-09T13:58:25.870Z,10.10
2023-01-09T14:01:00.063Z,10.20
2023-01-09T14:03:33.096Z,10.10
2023-01-09T14:06:24.677Z,10.10
2023-01-09T14:09:13.092Z,10.20
2023-01-09T14:11:41.516Z,10.20
2023-01-09T14:14:26.666Z,10.20
2023-01-09T14:16:54.786Z,10.10
2023-01-09T14:19:35.526Z,10.10
2023-01-09T14:22:04.564Z,10.20
2023-01-09T14:24:40.970Z,10.10
2023-01-09T14:27:47.916Z,10.10
2023-01-09T14:30:33.866Z,10.10
2023-01-09T14:33:04.191Z,10.00
2023-01-09T14:35:51.895Z,10.10
2023-01-09T14:38:29.829Z,10.10
2023-01-09T14:41:02.219Z,10.00
2023-01-09T14:43:41.022Z,10.00
2023-01-09T14:46:14.141Z,10.10
2023-01-09T14:48:54.950Z,10.00
2023-01-09T14:51:27.655Z,10.10
2023-01-09T14:53:57.183Z,10.10
2023-01-09T14:56:30.351Z,10.10
2023-01-09T14:59:06.018Z,10.00
2023-01-09T15:01:36.248Z,10.00
2023-01-09T15:04:07.544Z,10.00
2023-01-09T15:06:41.063Z,10.10
2023-01-09T15:09:25.123Z,10.10
2023-01-09T15:11:55.382Z,10.10
2023-01-09T15:14:31.863Z,10.10
2023-01-09T15:17:01.122Z,10.10
2023-01-09T15:19:31.857Z,10.10
2023-01-09T15:22:03.908Z,10.10
2023-01-09T15:24:34.290Z,10.10
2023-01-09T15:27:05.550Z,10.10
2023-01-09T15:29:33.599Z,10.00
2023-01-09T15:32:06.938Z,9.90
2023-01-09T15:34:35.258Z,9.90
2023-01-09T15:37:04.993Z,10.00
2023-01-09T15:39:38.973Z,9.90
2023-01-09T15:42:50.784Z,9.90
2023-01-09T15:45:24.586Z,10.00
2023-01-09T15:47:52.905Z,10.00
2023-01-09T15:50:27.077Z,9.90
2023-01-09T15:52:57.376Z,10.00
2023-01-09T15:55:35.012Z,9.90
2023-01-09T15:58:04.112Z,9.90
2023-01-09T16:00:41.728Z,10.00
2023-01-09T16:03:20.051Z,9.90
2023-01-09T16:05:52.587Z,9.90
2023-01-09T16:08:29.360Z,9.90
2023-01-09T16:11:04.086Z,10.00
2023-01-09T16:13:35.037Z,10.00
2023-01-09T16:16:03.887Z,9.90
2023-01-09T16:18:34.886Z,9.90
2023-01-09T16:21:20.904Z,9.80
2023-01-09T16:23:55.746Z,9.90
2023-01-09T16:26:25.477Z,9.90
2023-01-09T16:28:54.133Z,9.90
2023-01-09T16:31:25.763Z,9.80
2023-01-09T16:34:00.673Z,9.90
2023-01-09T16:36:29.708Z,9.90
2023-01-09T16:39:00.789Z,9.90
2023-01-09T16:41:46.397Z,9.80
2023-01-09T16:44:14.509Z,9.80
2023-01-09T16:46:44.267Z,9.70
2023-01-09T16:49:18.838Z,9.80
2023-01-09T16:51:46.958Z,9.80
2023-01-09T16:54:16.563Z,9.60
2023-01-09T16:56:48.371Z,9.50
2023-01-09T16:59:21.517Z,9.50
2023-01-09T17:01:49.802Z,9.50
2023-01-09T17:04:19.995Z,9.50
2023-01-09T17:06:49.482Z,9.40
2023-01-09T17:09:23.147Z,9.40
2023-01-09T17:11:52.114Z,9.40
2023-01-09T17:14:20.113Z,9.40
2023-01-09T17:16:48.394Z,9.40
2023-01-09T17:19:20.771Z,9.40
2023-01-09T17:21:48.900Z,9.40
2023-01-09T17:24:35.969Z,9.30
2023-01-09T17:27:21.851Z,9.30
2023-01-09T17:29:49.890Z,9.30
2023-01-09T17:32:19.066Z,9.30
2023-01-09T17:34:47.118Z,9.30
2023-01-09T17:37:16.409Z,9.30
2023-01-09T17:39:46.399Z,9.30
2023-01-09T17:42:14.449Z,9.20
2023-01-09T17:44:42.436Z,9.30
2023-01-09T17:47:15.740Z,9.30
2023-01-09T17:49:44.347Z,9.40
2023-01-09T17:52:12.349Z,9.30
2023-01-09T17:54:41.145Z,9.30
2023-01-09T17:57:15.143Z,9.30
2023-01-09T17:59:44.824Z,9.30
2023-01-09T18:02:18.472Z,9.40
2023-01-09T18:04:46.929Z,9.40
2023-01-09T18:07:16.329Z,9.40
2023-01-09T18:09:44.637Z,9.40
2023-01-09T18:12:14.083Z,9.40
2023-01-09T18:14:42.449Z,9.30
2023-01-09T18:17:12.743Z,9.20
2023-01-09T18:19:40.881Z,9.20
2023-01-09T18:22:08.945Z,9.30
2023-01-09T18:24:36.986Z,9.30
2023-01-09T18:27:05.283Z,9.40
2023-01-09T18:29:34.620Z,9.40
2023-01-09T18:32:02.993Z,9.40
2023-01-09T18:34:31.035Z,9.30
2023-01-09T18:36:59.144Z,9.30
2023-01-09T18:39:27.228Z,9.30
2023-01-09T18:41:55.258Z,9.40
2023-01-09T18:44:23.598Z,9.40
2023-01-09T18:46:53.037Z,9.30
2023-01-09T18:49:21.236Z,9.30
2023-01-09T18:51:49.231Z,9.30
2023-01-09T18:54:20.045Z,9.30
2023-01-09T18:56:48.124Z,9.40
2023-01-09T18:59:16.140Z,9.50
2023-01-09T19:01:44.303Z,9.40
2023-01-09T19:04:13.730Z,9.30
2023-01-09T19:06:41.755Z,9.30
2023-01-09T19:09:09.814Z,9.30
2023-01-09T19:11:37.943Z,9.30
2023-01-09T19:14:05.943Z,9.30
2023-01-09T19:16:34.044Z,9.30
2023-01-09T19:19:03.236Z,9.20
2023-01-09T19:21:32.858Z,9.30
2023-01-09T19:24:00.883Z,9.30
2023-01-09T19:26:30.831Z,9.20
2023-01-09T19:28:59.227Z,9.30
2023-01-09T19:31:30.715Z,9.20
2023-01-09T19:33:59.140Z,9.10
2023-01-09T19:36:28.346Z,9.10
2023-01-09T19:39:02.491Z,9.10
2023-01-09T19:41:30.897Z,9.10
2023-01-09T19:44:00.447Z,9.10
2023-01-09T19:46:28.641Z,9.00
2023-01-09T19:48:58.828Z,9.00
2023-01-09T19:51:26.852Z,9.10
2023-01-09T19:53:58.217Z,9.00
2023-01-09T19:56:29.791Z,9.00
2023-01-09T19:58:59.634Z,9.00
2023-01-09T20:01:29.648Z,9.00
2023-01-09T20:04:02.703Z,9.00
2023-01-09T20:06:31.927Z,9.00
2023-01-09T20:09:02.013Z,9.00
2023-01-09T20:11:33.348Z,9.00
2023-01-09T20:14:01.741Z,9.00
2023-01-09T20:16:31.122Z,9.10
2023-01-09T20:19:01.064Z,9.10
2023-01-09T20:21:30.349Z,9.00
2023-01-09T20:24:01.080Z,9.00
2023-01-09T20:26:31.209Z,9.00
2023-01-09T20:28:59.942Z,9.00
2023-01-09T20:31:31.338Z,8.90
2023-01-09T20:34:00.164Z,8.90
2023-01-09T20:36:30.120Z,8.90
2023-01-09T20:38:59.696Z,8.90
2023-01-09T20:41:30.965Z,8.90
2023-01-09T20:44:02.715Z,8.80
2023-01-09T20:46:32.301Z,8.80
2023-01-09T20:49:03.386Z,8.70
2023-01-09T20:51:31.976Z,8.70
2023-01-09T20:54:00.255Z,8.70
2023-01-09T20:56:30.311Z,8.70
2023-01-09T20:59:00.671Z,8.60
2023-01-09T21:01:29.441Z,8.60
2023-01-09T21:03:58.259Z,8.70
2023-01-09T21:06:28.136Z,8.70
2023-01-09T21:08:56.584Z,8.70
2023-01-09T21:11:24.861Z,8.70
2023-01-09T21:13:53.189Z,8.70
2023-01-09T21:16:24.456Z,8.60
2023-01-09T21:18:54.234Z,8.60
2023-01-09T21:21:24.212Z,8.70
2023-01-09T21:23:54.402Z,8.70
2023-01-09T21:26:24.331Z,8.70
2023-01-09T21:28:55.051Z,8.80
2023-01-09T21:31:28.746Z,8.80
2023-01-09T21:33:56.905Z,8.80
2023-01-09T21:36:24.968Z,8.80
2023-01-09T21:38:54.082Z,8.80
2023-01-09T21:41:40.218Z,8.80
2023-01-09T21:44:29.271Z,8.90
2023-01-09T21:46:59.732Z,8.90
2023-01-09T21:49:31.209Z,8.90
2023-01-09T21:51:59.595Z,8.90
2023-01-09T21:54:27.620Z,9.00
2023-01-09T21:56:56.031Z,9.00
2023-01-09T21:59:24.092Z,9.10
2023-01-09T22:01:53.052Z,9.10
2023-01-09T22:04:24.048Z,9.00
2023-01-09T22:06:52.667Z,8.90
2023-01-09T22:09:20.874Z,8.80
2023-01-09T22:11:49.131Z,8.70
2023-01-09T22:14:20.114Z,8.70
2023-01-09T22:16:48.693Z,8.70
2023-01-09T22:19:18.275Z,8.70
2023-01-09T22:21:48.037Z,8.70
2023-01-09T22:24:18.000Z,8.60
2023-01-09T22:26:46.630Z,8.60
2023-01-09T22:29:15.990Z,8.60
2023-01-09T22:31:44.213Z,8.70
2023-01-09T22:34:15.789Z,8.70
2023-01-09T22:36:45.052Z,8.80
2023-01-09T22:39:15.826Z,8.70
2023-01-09T22:41:44.943Z,8.80
2023-01-09T22:44:13.828Z,8.70
2023-01-09T22:46:42.005Z,8.70
2023-01-09T22:49:11.995Z,8.70
2023-01-09T22:51:40.082Z,8.70
2023-01-09T22:54:08.544Z,8.70
2023-01-09T22:56:37.987Z,8.70
2023-01-09T22:59:06.092Z,8.70
2023-01-09T23:01:34.172Z,8.70
2023-01-09T23:04:03.641Z,8.70
2023-01-09T23:06:31.942Z,8.70
2023-01-09T23:08:59.971Z,8.70
2023-01-09T23:11:47.832Z,8.80
2023-01-09T23:14:18.003Z,8.70
2023-01-09T23:16:46.210Z,8.70
2023-01-09T23:19:15.568Z,8.70
2023-01-09T23:21:45.024Z,8.80
2023-01-09T23:24:13.920Z,8.80
2023-01-09T23:26:43.513Z,8.80
2023-01-09T23:29:12.135Z,8.80
2023-01-09T23:31:42.101Z,8.70
2023-01-09T23:34:13.689Z,8.70
2023-01-09T23:36:42.391Z,8.70
2023-01-09T23:39:10.911Z,8.80
2023-01-09T23:41:52.878Z,8.80
2023-01-09T23:44:20.893Z,8.80
2023-01-09T23:46:50.761Z,8.70
2023-01-09T23:49:18.956Z,8.70
2023-01-09T23:51:47.184Z,8.70
2023-01-09T23:54:16.292Z,8.60
2023-01-09T23:56:44.759Z,8.60
2023-01-09T23:59:17.458Z,8.60
